Lanzarote Airport

GCRR | ACE

Lanzarote Island , Canary-Islands , Spain

Thursday, September 19th, 2019 | 20:24

Weather

GCRR 191900Z 36014KT 9999 FEW020 24/19 Q1016

Charts

No Charts Available

Gates

42 Available

Runways

1 Available

Events

No events for this airport


New event